createdAt,value
2022-10-28T00:02:15.479Z,5.68
2022-10-28T00:04:41.808Z,5.32
2022-10-28T00:07:08.284Z,5.57
2022-10-28T00:09:34.466Z,5.20
2022-10-28T00:12:00.705Z,5.93
2022-10-28T00:14:26.926Z,5.50
2022-10-28T00:16:53.152Z,5.10
2022-10-28T00:19:19.434Z,5.60
2022-10-28T00:21:45.635Z,4.97
2022-10-28T00:24:12.435Z,4.95
2022-10-28T00:26:42.080Z,5.40
2022-10-28T00:29:12.921Z,5.20
2022-10-28T00:31:39.589Z,5.25
2022-10-28T00:34:06.899Z,5.88
2022-10-28T00:36:34.394Z,6.10
2022-10-28T00:39:01.418Z,5.43
2022-10-28T00:41:28.983Z,5.57
2022-10-28T00:43:56.174Z,5.10
2022-10-28T00:46:53.103Z,5.32
2022-10-28T00:49:25.332Z,5.57
2022-10-28T00:51:53.329Z,5.00
2022-10-28T00:54:20.032Z,5.07
2022-10-28T00:56:48.262Z,5.50
2022-10-28T00:59:18.515Z,5.15
2022-10-28T01:01:44.958Z,5.88
2022-10-28T01:04:11.868Z,5.82
2022-10-28T01:06:38.398Z,5.50
2022-10-28T01:09:04.704Z,5.10
2022-10-28T01:11:40.286Z,5.20
2022-10-28T01:14:09.482Z,5.05
2022-10-28T01:16:42.414Z,5.20
2022-10-28T01:19:18.811Z,5.45
2022-10-28T01:22:05.339Z,5.28
2022-10-28T01:24:34.289Z,6.03
2022-10-28T01:27:04.062Z,4.88
2022-10-28T01:29:44.308Z,5.35
2022-10-28T01:32:10.515Z,5.18
2022-10-28T01:34:49.420Z,5.65
2022-10-28T01:37:17.989Z,5.22
2022-10-28T01:39:47.576Z,5.65
2022-10-28T01:45:22.623Z,5.50
2022-10-28T01:48:04.180Z,5.45
2022-10-28T01:50:36.437Z,4.80
2022-10-28T01:53:04.270Z,5.20
2022-10-28T01:55:33.702Z,5.13
2022-10-28T02:03:18.046Z,4.80
2022-10-28T02:05:45.849Z,4.93
2022-10-28T02:08:17.821Z,5.10
2022-10-28T02:10:56.181Z,5.05
2022-10-28T02:13:26.646Z,4.68
2022-10-28T02:16:00.047Z,4.57
2022-10-28T02:18:29.048Z,5.50
2022-10-28T02:21:01.829Z,4.80
2022-10-28T02:23:33.932Z,5.28
2022-10-28T02:26:06.335Z,5.28
2022-10-28T02:28:52.778Z,5.05
2022-10-28T02:31:29.407Z,6.03
2022-10-28T02:33:58.456Z,5.28
2022-10-28T02:36:25.372Z,5.53
2022-10-28T02:38:56.331Z,5.35
2022-10-28T02:41:26.148Z,5.25
2022-10-28T02:43:55.501Z,4.85
2022-10-28T02:46:24.546Z,5.38
2022-10-28T02:48:52.428Z,4.65
2022-10-28T02:51:20.922Z,5.35
2022-10-28T02:53:56.880Z,5.28
2022-10-28T02:56:23.597Z,5.30
2022-10-28T02:58:50.118Z,4.75
2022-10-28T03:01:16.541Z,6.00
2022-10-28T03:03:43.194Z,4.90
2022-10-28T03:06:09.608Z,5.13
2022-10-28T03:08:35.827Z,5.22
2022-10-28T03:11:02.018Z,5.50
2022-10-28T03:13:28.251Z,4.88
2022-10-28T03:15:54.447Z,4.95
2022-10-28T03:18:20.636Z,4.32
2022-10-28T03:20:47.114Z,4.93
2022-10-28T03:23:13.303Z,4.22
2022-10-28T03:25:39.542Z,4.57
2022-10-28T03:28:05.853Z,4.45
2022-10-28T03:30:32.031Z,5.00
2022-10-28T03:32:58.284Z,4.75
2022-10-28T03:35:24.600Z,4.95
2022-10-28T03:37:51.287Z,5.43
2022-10-28T03:40:17.518Z,4.80
2022-10-28T03:42:43.900Z,5.13
2022-10-28T03:45:10.372Z,4.53
2022-10-28T03:47:37.030Z,4.80
2022-10-28T03:50:03.684Z,5.20
2022-10-28T03:52:29.908Z,5.13
2022-10-28T03:54:56.102Z,5.07
2022-10-28T03:57:22.305Z,5.28
2022-10-28T03:59:48.518Z,5.10
2022-10-28T04:02:17.252Z,4.88
2022-10-28T04:04:43.599Z,5.25
2022-10-28T04:07:09.873Z,5.10
2022-10-28T04:09:36.154Z,4.78
2022-10-28T04:14:35.245Z,5.45
2022-10-28T04:17:04.891Z,5.82
2022-10-28T04:19:31.127Z,5.32
2022-10-28T04:21:57.350Z,5.40
2022-10-28T04:24:23.538Z,4.93
2022-10-28T04:26:49.801Z,5.50
2022-10-28T04:29:16.037Z,5.13
2022-10-28T04:31:42.327Z,5.22
2022-10-28T04:34:08.537Z,5.22
2022-10-28T04:36:34.730Z,5.30
2022-10-28T04:39:00.903Z,5.40
2022-10-28T04:41:27.122Z,5.40
2022-10-28T04:43:55.934Z,5.72
2022-10-28T04:46:22.363Z,4.82
2022-10-28T04:48:48.600Z,5.55
2022-10-28T04:51:14.810Z,5.38
2022-10-28T04:53:41.020Z,5.68
2022-10-28T04:56:08.187Z,5.07
2022-10-28T04:58:34.576Z,5.53
2022-10-28T05:01:04.972Z,5.38
2022-10-28T05:03:31.194Z,5.75
2022-10-28T05:05:57.395Z,5.38
2022-10-28T05:08:23.578Z,4.90
2022-10-28T05:10:51.080Z,4.57
2022-10-28T05:13:17.848Z,4.57
2022-10-28T05:15:44.152Z,4.43
2022-10-28T05:18:10.863Z,5.10
2022-10-28T05:20:37.295Z,5.43
2022-10-28T05:23:03.503Z,5.00
2022-10-28T05:25:29.701Z,5.30
2022-10-28T05:28:00.530Z,5.18
2022-10-28T05:30:27.554Z,4.90
2022-10-28T05:35:52.044Z,5.43
2022-10-28T05:38:18.252Z,5.47
2022-10-28T05:40:44.435Z,5.45
2022-10-28T05:43:10.899Z,5.15
2022-10-28T05:45:37.153Z,5.05
2022-10-28T05:48:04.156Z,5.25
2022-10-28T05:50:30.440Z,5.15
2022-10-28T05:52:57.071Z,5.32
2022-10-28T05:55:24.595Z,5.97
2022-10-28T05:57:51.892Z,5.70
2022-10-28T06:00:19.328Z,5.80
2022-10-28T06:02:45.679Z,5.05
2022-10-28T06:05:12.121Z,5.82
2022-10-28T06:07:39.089Z,6.22
2022-10-28T06:10:06.184Z,5.85
2022-10-28T06:12:31.164Z,5.30
2022-10-28T06:14:57.364Z,5.72
2022-10-28T06:17:23.721Z,5.80
2022-10-28T06:19:49.910Z,6.07
2022-10-28T06:22:16.196Z,5.65
2022-10-28T06:24:42.378Z,5.65
2022-10-28T06:27:08.633Z,7.78
2022-10-28T06:29:34.864Z,6.38
2022-10-28T06:32:03.903Z,6.40
2022-10-28T06:34:30.088Z,6.55
2022-10-28T06:36:57.776Z,6.45
2022-10-28T06:39:24.005Z,5.63
2022-10-28T06:41:50.213Z,5.45
2022-10-28T06:44:16.454Z,5.80
2022-10-28T06:46:44.235Z,9.73
2022-10-28T06:49:10.507Z,6.25
2022-10-28T06:51:36.744Z,5.20
2022-10-28T06:54:02.972Z,6.60
2022-10-28T06:56:29.197Z,5.90
2022-10-28T06:58:55.466Z,6.40
2022-10-28T07:01:22.014Z,6.20
2022-10-28T07:03:48.519Z,5.72
2022-10-28T07:06:15.835Z,5.93
2022-10-28T07:08:42.128Z,11.57
2022-10-28T07:11:11.190Z,5.78
2022-10-28T07:13:37.401Z,6.38
2022-10-28T07:16:06.129Z,5.93
2022-10-28T07:18:32.322Z,8.15
2022-10-28T07:20:59.814Z,6.28
2022-10-28T07:23:26.244Z,6.43
2022-10-28T07:28:25.021Z,4.93
2022-10-28T07:30:51.418Z,5.65
2022-10-28T07:33:17.651Z,5.82
2022-10-28T07:35:44.283Z,6.45
2022-10-28T07:38:11.020Z,5.47
2022-10-28T07:40:37.732Z,6.15
2022-10-28T07:43:03.947Z,4.72
2022-10-28T07:45:30.396Z,5.63
2022-10-28T07:47:56.653Z,5.03
2022-10-28T07:50:22.921Z,5.95
2022-10-28T07:52:49.143Z,4.80
2022-10-28T07:55:15.399Z,5.32
2022-10-28T07:57:41.618Z,5.93
2022-10-28T08:00:08.055Z,5.30
2022-10-28T08:02:34.271Z,5.20
2022-10-28T08:05:06.120Z,5.30
2022-10-28T08:07:34.883Z,5.88
2022-10-28T08:10:05.416Z,6.00
2022-10-28T08:12:31.617Z,5.88
2022-10-28T08:14:57.855Z,5.32
2022-10-28T08:17:24.342Z,5.57
2022-10-28T08:19:50.536Z,5.57
2022-10-28T08:22:16.763Z,5.03
2022-10-28T08:24:42.986Z,5.80
2022-10-28T08:27:09.232Z,6.60
2022-10-28T08:29:35.465Z,5.97
2022-10-28T08:32:01.681Z,5.18
2022-10-28T08:34:29.804Z,5.43
2022-10-28T08:36:56.752Z,5.40
2022-10-28T08:39:23.240Z,5.60
2022-10-28T08:41:54.468Z,5.60
2022-10-28T08:44:23.426Z,5.72
2022-10-28T08:47:08.558Z,5.30
2022-10-28T08:49:36.514Z,5.65
2022-10-28T08:52:11.798Z,5.32
2022-10-28T08:54:50.512Z,6.00
2022-10-28T08:57:18.582Z,5.20
2022-10-28T08:59:45.236Z,5.45
2022-10-28T09:02:11.395Z,4.85
2022-10-28T09:04:44.551Z,5.22
2022-10-28T09:07:16.390Z,4.70
2022-10-28T09:12:39.025Z,4.70
2022-10-28T09:15:06.093Z,4.97
2022-10-28T09:17:38.224Z,5.07
2022-10-28T09:23:10.935Z,5.28
2022-10-28T09:25:56.046Z,4.72
2022-10-28T09:28:37.705Z,7.32
2022-10-28T09:31:15.332Z,6.63
2022-10-28T09:33:46.054Z,5.32
2022-10-28T09:36:15.601Z,5.53
2022-10-28T09:38:42.823Z,5.15
2022-10-28T09:44:26.938Z,6.60
2022-10-28T09:46:59.179Z,5.85
2022-10-28T09:49:27.757Z,5.13
2022-10-28T09:52:10.973Z,4.68
2022-10-28T09:54:44.507Z,4.90
2022-10-28T09:57:12.630Z,5.63
2022-10-28T09:59:41.238Z,4.97
2022-10-28T10:02:22.315Z,3.95
2022-10-28T10:04:48.591Z,3.90
2022-10-28T10:07:18.928Z,5.57
2022-10-28T10:09:45.300Z,5.03
2022-10-28T10:12:12.425Z,4.43
2022-10-28T10:14:38.648Z,4.65
2022-10-28T10:17:06.533Z,4.15
2022-10-28T10:19:51.258Z,4.05
2022-10-28T10:22:31.248Z,3.55
2022-10-28T10:24:57.687Z,4.07
2022-10-28T10:27:25.423Z,4.25
2022-10-28T10:29:52.678Z,4.68
2022-10-28T10:32:21.508Z,3.92
2022-10-28T10:35:10.546Z,4.63
2022-10-28T10:37:41.574Z,4.07
2022-10-28T10:40:09.427Z,4.40
2022-10-28T10:42:42.698Z,3.58
2022-10-28T10:45:23.197Z,4.28
2022-10-28T10:47:52.798Z,4.05
2022-10-28T10:53:01.497Z,4.15
2022-10-28T10:55:36.255Z,3.72
2022-10-28T10:58:03.283Z,4.75
2022-10-28T11:00:31.683Z,4.13
2022-10-28T11:02:59.105Z,3.78
2022-10-28T11:05:29.122Z,4.38
2022-10-28T11:08:05.259Z,4.32
2022-10-28T11:10:32.363Z,4.10
2022-10-28T11:13:00.952Z,3.92
2022-10-28T11:15:28.847Z,4.93
2022-10-28T11:17:56.924Z,3.50
2022-10-28T11:20:26.166Z,4.00
2022-10-28T11:23:04.339Z,3.90
2022-10-28T11:25:30.542Z,4.13
2022-10-28T11:28:06.521Z,3.72
2022-10-28T11:30:44.685Z,3.72
2022-10-28T11:33:30.783Z,4.05
2022-10-28T11:36:10.762Z,4.47
2022-10-28T11:38:45.655Z,4.63
2022-10-28T11:44:21.633Z,4.82
2022-10-28T11:47:14.322Z,3.90
2022-10-28T11:49:49.418Z,4.90
2022-10-28T11:52:27.703Z,5.32
2022-10-28T11:55:05.218Z,4.00
2022-10-28T11:57:34.202Z,4.43
2022-10-28T12:00:07.139Z,4.43
2022-10-28T12:02:53.377Z,3.95
2022-10-28T12:05:30.533Z,4.03
2022-10-28T12:08:14.960Z,4.10
2022-10-28T12:11:05.139Z,4.28
2022-10-28T12:13:31.366Z,3.72
2022-10-28T12:16:00.797Z,3.55
2022-10-28T12:18:46.063Z,3.65
2022-10-28T12:21:31.199Z,4.25
2022-10-28T12:23:58.285Z,4.18
2022-10-28T12:26:36.066Z,4.63
2022-10-28T12:29:04.349Z,4.05
2022-10-28T12:31:34.102Z,5.13
2022-10-28T12:34:01.815Z,5.45
2022-10-28T12:36:41.647Z,4.75
2022-10-28T12:39:27.233Z,4.82
2022-10-28T12:42:00.617Z,4.70
2022-10-28T12:44:28.208Z,3.75
2022-10-28T12:47:06.990Z,4.10
2022-10-28T12:49:47.924Z,4.28
2022-10-28T12:52:19.375Z,4.40
2022-10-28T12:54:57.057Z,4.32
2022-10-28T13:00:18.648Z,4.03
2022-10-28T13:02:48.799Z,4.47
2022-10-28T13:05:23.545Z,3.50
2022-10-28T13:07:59.063Z,3.75
2022-10-28T13:10:51.336Z,4.25
2022-10-28T13:13:43.702Z,4.35
2022-10-28T13:16:22.562Z,4.50
2022-10-28T13:18:51.765Z,3.55
2022-10-28T13:21:38.241Z,3.78
2022-10-28T13:24:11.165Z,4.50
2022-10-28T13:26:40.986Z,3.50
2022-10-28T13:29:08.107Z,4.57
2022-10-28T13:31:39.059Z,3.85
2022-10-28T13:34:06.000Z,4.13
2022-10-28T13:36:38.573Z,4.07
2022-10-28T13:39:06.459Z,4.10
2022-10-28T13:41:32.817Z,3.78
2022-10-28T13:44:07.894Z,3.53
2022-10-28T13:46:53.244Z,3.63
2022-10-28T13:49:26.190Z,3.97
2022-10-28T13:51:59.979Z,3.88
2022-10-28T13:54:33.421Z,4.35
2022-10-28T13:57:04.958Z,3.70
2022-10-28T13:59:33.509Z,3.95
2022-10-28T14:02:32.589Z,4.15
2022-10-28T14:04:54.502Z,3.70
2022-10-28T14:07:22.515Z,4.35
2022-10-28T14:09:51.564Z,3.80
2022-10-28T14:12:28.406Z,4.30
2022-10-28T14:14:59.678Z,3.58
2022-10-28T14:19:53.066Z,4.05
2022-10-28T14:22:34.074Z,4.30
2022-10-28T14:25:00.750Z,3.15
2022-10-28T14:27:28.218Z,4.43
2022-10-28T14:29:54.409Z,3.88
2022-10-28T14:32:32.932Z,4.32
2022-10-28T14:35:12.787Z,3.97
2022-10-28T14:37:44.769Z,3.92
2022-10-28T14:40:29.755Z,4.43
2022-10-28T14:42:55.997Z,4.65
2022-10-28T14:45:41.389Z,4.43
2022-10-28T14:48:13.490Z,4.40
2022-10-28T14:50:44.932Z,3.88
2022-10-28T14:53:14.071Z,5.38
2022-10-28T14:58:39.477Z,5.15
2022-10-28T15:01:17.982Z,4.68
2022-10-28T15:03:46.313Z,4.32
2022-10-28T15:06:19.779Z,4.43
2022-10-28T15:08:46.130Z,4.82
2022-10-28T15:11:15.486Z,3.97
2022-10-28T15:13:41.775Z,5.15
2022-10-28T15:16:18.585Z,4.60
2022-10-28T15:18:49.233Z,4.05
2022-10-28T15:21:17.461Z,4.38
2022-10-28T15:23:46.236Z,4.22
2022-10-28T15:26:17.001Z,4.25
2022-10-28T15:28:43.292Z,5.22
2022-10-28T15:31:09.789Z,4.55
2022-10-28T15:33:39.494Z,4.65
2022-10-28T15:36:17.558Z,5.00
2022-10-28T15:38:51.463Z,4.90
2022-10-28T15:41:30.212Z,4.90
2022-10-28T15:44:00.387Z,5.53
2022-10-28T15:46:27.365Z,5.90
2022-10-28T15:48:54.630Z,4.80
2022-10-28T15:51:21.468Z,5.38
2022-10-28T15:53:48.417Z,4.70
2022-10-28T15:56:14.621Z,5.55
2022-10-28T15:58:41.884Z,5.15
2022-10-28T16:01:27.430Z,5.45
2022-10-28T16:03:53.829Z,5.80
2022-10-28T16:06:31.702Z,6.07
2022-10-28T16:11:56.556Z,5.63
2022-10-28T16:14:41.814Z,4.80
2022-10-28T16:17:15.034Z,4.85
2022-10-28T16:19:43.548Z,5.05
2022-10-28T16:22:13.857Z,6.60
2022-10-28T16:24:40.444Z,5.60
2022-10-28T16:27:15.500Z,5.82
2022-10-28T16:29:41.714Z,4.72
2022-10-28T16:32:10.144Z,4.85
2022-10-28T16:34:36.403Z,4.88
2022-10-28T16:37:02.576Z,5.03
2022-10-28T16:39:28.905Z,5.72
2022-10-28T16:41:56.666Z,5.00
2022-10-28T16:44:25.628Z,5.15
2022-10-28T16:46:51.828Z,5.35
2022-10-28T16:49:18.545Z,5.65
2022-10-28T16:51:50.144Z,5.43
2022-10-28T16:54:16.310Z,5.28
2022-10-28T16:56:42.508Z,5.18
2022-10-28T16:59:08.923Z,4.88
2022-10-28T17:01:35.296Z,5.07
2022-10-28T17:04:01.665Z,5.60
2022-10-28T17:06:28.050Z,5.47
2022-10-28T17:09:02.929Z,5.65
2022-10-28T17:14:05.022Z,5.68
2022-10-28T17:16:31.311Z,4.95
2022-10-28T17:18:57.539Z,6.40
2022-10-28T17:21:23.910Z,5.05
2022-10-28T17:23:50.496Z,5.22
2022-10-28T17:26:16.759Z,5.78
2022-10-28T17:28:43.004Z,6.30
2022-10-28T17:31:09.467Z,5.80
2022-10-28T17:33:35.658Z,5.60
2022-10-28T17:36:04.772Z,6.13
2022-10-28T17:38:31.398Z,5.07
2022-10-28T17:40:57.929Z,6.90
2022-10-28T17:43:24.314Z,6.13
2022-10-28T17:45:50.740Z,6.15
2022-10-28T17:48:17.006Z,6.15
2022-10-28T17:50:44.104Z,6.10
2022-10-28T17:53:10.613Z,5.60
2022-10-28T17:55:37.185Z,5.30
2022-10-28T17:58:03.556Z,6.03
2022-10-28T18:00:29.793Z,6.05
2022-10-28T18:02:56.325Z,6.13
2022-10-28T18:05:22.901Z,5.80
2022-10-28T18:07:49.074Z,5.57
2022-10-28T18:10:16.613Z,5.53
2022-10-28T18:12:42.889Z,5.18
2022-10-28T18:15:09.533Z,6.25
2022-10-28T18:17:36.982Z,5.50
2022-10-28T18:20:04.140Z,6.40
2022-10-28T18:22:30.719Z,6.75
2022-10-28T18:24:56.998Z,6.18
2022-10-28T18:27:23.513Z,6.65
2022-10-28T18:29:49.771Z,6.88
2022-10-28T18:32:16.350Z,7.15
2022-10-28T18:34:42.858Z,6.57
2022-10-28T18:37:09.786Z,5.93
2022-10-28T18:39:41.118Z,6.35
2022-10-28T18:42:08.732Z,6.47
2022-10-28T18:47:27.563Z,6.55
2022-10-28T18:49:54.338Z,7.07
2022-10-28T18:52:20.535Z,7.28
2022-10-28T18:54:46.735Z,7.18
2022-10-28T18:57:12.934Z,6.85
2022-10-28T18:59:52.399Z,6.55
2022-10-28T19:02:25.501Z,6.85
2022-10-28T19:04:51.816Z,7.93
2022-10-28T19:07:18.929Z,7.72
2022-10-28T19:09:45.134Z,7.20
2022-10-28T19:12:11.335Z,7.40
2022-10-28T19:14:37.562Z,8.48
2022-10-28T19:17:03.761Z,8.00
2022-10-28T19:19:30.951Z,7.82
2022-10-28T19:21:59.565Z,7.65
2022-10-28T19:24:26.531Z,6.88
2022-10-28T19:26:52.734Z,7.25
2022-10-28T19:29:18.977Z,7.40
2022-10-28T19:31:45.445Z,7.13
2022-10-28T19:34:11.746Z,7.38
2022-10-28T19:36:39.035Z,6.90
2022-10-28T19:39:05.307Z,7.18
2022-10-28T19:44:24.026Z,7.18
2022-10-28T19:46:50.390Z,7.68
2022-10-28T19:49:16.630Z,7.70
2022-10-28T19:51:42.860Z,8.75
2022-10-28T19:54:12.885Z,8.30
2022-10-28T19:56:39.152Z,8.88
2022-10-28T19:59:06.026Z,8.82
2022-10-28T20:01:33.306Z,8.13
2022-10-28T20:03:59.855Z,9.05
2022-10-28T20:06:27.482Z,10.00
2022-10-28T20:08:53.790Z,8.80
2022-10-28T20:11:24.991Z,8.85
2022-10-28T20:14:00.872Z,9.32
2022-10-28T20:16:27.621Z,9.30
2022-10-28T20:18:54.705Z,10.95
2022-10-28T20:21:21.613Z,10.07
2022-10-28T20:23:53.264Z,9.13
2022-10-28T20:26:20.328Z,8.52
2022-10-28T20:28:46.542Z,7.70
2022-10-28T20:31:14.213Z,8.13
2022-10-28T20:33:41.326Z,7.82
2022-10-28T20:36:20.311Z,8.55
2022-10-28T20:38:46.603Z,8.70
2022-10-28T20:41:15.765Z,8.70
2022-10-28T20:43:42.013Z,8.18
2022-10-28T20:46:08.914Z,8.25
2022-10-28T20:48:35.182Z,8.98
2022-10-28T20:51:06.497Z,7.90
2022-10-28T20:53:33.516Z,8.23
2022-10-28T20:56:00.157Z,8.93
2022-10-28T20:58:31.104Z,7.47
2022-10-28T21:01:07.376Z,7.47
2022-10-28T21:03:34.017Z,7.80
2022-10-28T21:06:04.239Z,7.47
2022-10-28T21:08:30.679Z,6.93
2022-10-28T21:11:00.680Z,7.57
2022-10-28T21:13:26.983Z,7.20
2022-10-28T21:15:56.593Z,7.82
2022-10-28T21:18:24.372Z,7.15
2022-10-28T21:20:55.099Z,6.93
2022-10-28T21:23:22.366Z,8.70
2022-10-28T21:26:04.543Z,7.68
2022-10-28T21:28:31.613Z,7.28
2022-10-28T21:31:05.679Z,7.35
2022-10-28T21:33:33.814Z,7.95
2022-10-28T21:36:07.051Z,8.25
2022-10-28T21:38:33.286Z,7.53
2022-10-28T21:41:05.267Z,7.53
2022-10-28T21:43:33.057Z,7.90
2022-10-28T21:45:59.310Z,7.72
2022-10-28T21:48:26.244Z,7.03
2022-10-28T21:50:53.186Z,6.78
2022-10-28T21:53:19.534Z,7.53
2022-10-28T21:55:48.324Z,7.60
2022-10-28T21:58:15.869Z,8.48
2022-10-28T22:00:48.694Z,8.38
2022-10-28T22:03:15.026Z,7.50
2022-10-28T22:05:48.541Z,8.68
2022-10-28T22:08:15.640Z,8.27
2022-10-28T22:10:41.859Z,8.70
2022-10-28T22:13:08.038Z,8.43
2022-10-28T22:15:34.248Z,8.98
2022-10-28T22:18:00.434Z,8.93
2022-10-28T22:20:26.665Z,8.82
2022-10-28T22:22:53.064Z,8.13
2022-10-28T22:25:19.477Z,7.65
2022-10-28T22:27:45.671Z,8.25
2022-10-28T22:30:13.025Z,7.95
2022-10-28T22:32:39.397Z,8.40
2022-10-28T22:35:06.060Z,8.10
2022-10-28T22:37:32.254Z,8.30
2022-10-28T22:39:59.526Z,8.40
2022-10-28T22:42:25.718Z,8.65
2022-10-28T22:44:51.921Z,8.55
2022-10-28T22:47:18.098Z,7.88
2022-10-28T22:49:44.403Z,8.85
2022-10-28T22:52:10.595Z,8.65
2022-10-28T22:54:36.806Z,8.93
2022-10-28T22:57:03.034Z,8.30
2022-10-28T22:59:29.293Z,8.20
2022-10-28T23:01:55.599Z,8.43
2022-10-28T23:04:21.894Z,9.38
2022-10-28T23:06:48.113Z,8.30
2022-10-28T23:09:14.810Z,8.77
2022-10-28T23:11:41.014Z,8.27
2022-10-28T23:14:07.242Z,8.02
2022-10-28T23:16:33.487Z,8.90
2022-10-28T23:19:00.451Z,9.45
2022-10-28T23:21:26.755Z,8.18
2022-10-28T23:23:56.965Z,9.10
2022-10-28T23:26:23.630Z,8.10
2022-10-28T23:28:51.540Z,8.68
2022-10-28T23:31:18.050Z,8.88
2022-10-28T23:33:44.233Z,9.57
2022-10-28T23:36:11.202Z,8.18
2022-10-28T23:38:37.415Z,8.90
2022-10-28T23:43:55.004Z,8.07
2022-10-28T23:46:21.630Z,9.18
2022-10-28T23:48:47.835Z,8.02
2022-10-28T23:51:14.121Z,7.93
2022-10-28T23:53:40.324Z,8.43
2022-10-28T23:56:06.841Z,7.93
2022-10-28T23:58:33.017Z,8.45
